Trevor, WI (53179)

9:58 AM CDT on May 25, 2015 (GMT -0500)
Center Lake | | Change Station
CLOSE
Current Station
Personal Weather Station
Location: Salem, WI
Elevation: 800 ft
Nearby Weather Stations

Elev 800 ft 42.53 °N, 88.12 °W | Updated 3 minutes ago

Rain
Rain
66.1 °F
Feels Like 66.1 °F
N
6.0
Wind Variable Wind from SSW
Gusts 13.0 mph

Today
High -- | Low -- °F
--% Chance of Precip.
Yesterday
High -- | Low -- °F
Precip. -- in
5:22 AM 8:17 PM
Waxing Crescent, 49% visible
Pressure 29.83 in
Visibility 1.8 miles
Clouds Mostly Cloudy 2200 ft
Mostly Cloudy 2700 ft
Overcast 3500 ft
Dew Point 66 °F
Humidity 100%
Rainfall -999.00 in
Snow Depth Not available.
UV 2 out of 12
Pollen .40 out of 12
Air Quality Not available.
Flu Activity Sporadic
SPECI KENW 251451Z 24019G34KT 1 3/4SM +RA BKN022 BKN027 OVC035 21/18 A2983 RMK AO2 PK WND 25034/1448 RAB50 PRESRR P0005

More Conditions Fewer Conditions

Pressure 29.83 in
Visibility 1.8 miles
Clouds Mostly Cloudy 2200 ft
Mostly Cloudy 2700 ft
Overcast 3500 ft
Dew Point 66 °F
Humidity 100%
Rainfall -999.00 in
Snow Depth Not available.
UV 2 out of 12
Pollen .40 out of 12
Air Quality Not available.
Flu Activity Sporadic
SPECI KENW 251451Z 24019G34KT 1 3/4SM +RA BKN022 BKN027 OVC035 21/18 A2983 RMK AO2 PK WND 25034/1448 RAB50 PRESRR P0005

More Conditions Fewer Conditions

10-Day Weather Forecast

Almanac

Astronomy

May. 25, 2015 Rise Set
Actual Time
Civil Twilight
Nautical Twilight
Astronomical Twilight
Moon
Length of Visible Light
Length of Day
Tomorrow will be .
, % of the Moon is Illuminated

Today's Extremes

State Highs State Lows

Community

WunderPhotos

Upload Photos

1,824,024 photos uploaded!

WunderBlogs® & News

Nearby

Air Quality

  Air Quality AQ Index Pollutant
Not available.

Snow Depth

Station Depth Elevation

Earthquake Activity

City Distance Mag. Time & Date
Minimum magnitude displayed is 2.5.

Coastal Water Temperatures

Place Temperature

Stations

Nearby Weather Stations

Station Location Temp. Windchill Dew Point Humidity Wind Precip. Elev Updated Type